createdAt,value
2022-09-26T00:00:02.134Z,0.00
2022-09-26T00:01:02.219Z,0.00
2022-09-26T00:02:02.184Z,0.00
2022-09-26T00:03:02.133Z,0.00
2022-09-26T00:04:02.136Z,0.00
2022-09-26T00:05:02.133Z,0.00
2022-09-26T00:06:02.138Z,0.00
2022-09-26T00:07:02.132Z,0.00
2022-09-26T00:08:02.137Z,0.00
2022-09-26T00:09:02.136Z,0.00
2022-09-26T00:10:02.138Z,0.00
2022-09-26T00:11:02.151Z,0.00
2022-09-26T00:12:02.132Z,0.00
2022-09-26T00:13:02.133Z,0.00
2022-09-26T00:14:02.135Z,0.00
2022-09-26T00:15:02.134Z,0.00
2022-09-26T00:16:02.137Z,0.00
2022-09-26T00:17:02.272Z,0.00
2022-09-26T00:18:02.137Z,0.00
2022-09-26T00:19:02.134Z,0.00
2022-09-26T00:20:02.133Z,0.00
2022-09-26T00:21:02.131Z,0.00
2022-09-26T00:22:02.137Z,0.00
2022-09-26T00:23:02.138Z,0.00
2022-09-26T00:24:02.141Z,0.00
2022-09-26T00:25:02.133Z,0.00
2022-09-26T00:26:02.140Z,0.00
2022-09-26T00:27:02.204Z,0.00
2022-09-26T00:28:02.137Z,0.00
2022-09-26T00:29:02.131Z,0.00
2022-09-26T00:30:02.133Z,0.00
2022-09-26T00:31:02.255Z,0.00
2022-09-26T00:32:02.133Z,0.00
2022-09-26T00:33:02.137Z,0.00
2022-09-26T00:34:02.134Z,0.00
2022-09-26T00:35:02.131Z,0.00
2022-09-26T00:36:02.151Z,0.00
2022-09-26T00:37:02.135Z,0.00
2022-09-26T00:38:02.140Z,0.00
2022-09-26T00:39:02.136Z,0.00
2022-09-26T00:40:02.135Z,0.00
2022-09-26T00:41:02.244Z,0.00
2022-09-26T00:42:02.133Z,0.00
2022-09-26T00:43:02.150Z,0.00
2022-09-26T00:44:02.132Z,0.00
2022-09-26T00:45:02.134Z,0.00
2022-09-26T00:46:02.227Z,0.00
2022-09-26T00:47:02.131Z,0.00
2022-09-26T00:48:02.133Z,0.00
2022-09-26T00:49:02.132Z,0.00
2022-09-26T00:50:02.147Z,0.00
2022-09-26T00:51:02.131Z,0.00
2022-09-26T00:52:02.135Z,0.00
2022-09-26T00:53:02.130Z,0.00
2022-09-26T00:54:02.130Z,0.00
2022-09-26T00:55:02.131Z,0.00
2022-09-26T00:56:02.133Z,0.00
2022-09-26T00:57:02.132Z,0.00
2022-09-26T00:58:02.133Z,0.00
2022-09-26T00:59:02.155Z,0.00
2022-09-26T01:00:02.146Z,0.00
2022-09-26T01:01:02.353Z,0.00
2022-09-26T01:02:02.392Z,0.00
2022-09-26T01:03:02.129Z,0.00
2022-09-26T01:04:02.129Z,0.00
2022-09-26T01:05:02.132Z,0.00
2022-09-26T01:06:02.139Z,0.00
2022-09-26T01:07:02.131Z,0.00
2022-09-26T01:08:02.136Z,0.00
2022-09-26T01:09:02.127Z,0.00
2022-09-26T01:10:02.134Z,0.00
2022-09-26T01:11:02.135Z,0.00
2022-09-26T01:12:02.130Z,0.00
2022-09-26T01:13:02.131Z,0.00
2022-09-26T01:14:02.135Z,0.00
2022-09-26T01:15:02.232Z,0.00
2022-09-26T01:16:02.140Z,0.00
2022-09-26T01:17:02.203Z,0.00
2022-09-26T01:18:02.128Z,0.00
2022-09-26T01:19:02.129Z,0.00
2022-09-26T01:20:02.133Z,0.00
2022-09-26T01:21:02.131Z,0.00
2022-09-26T01:22:02.131Z,0.00
2022-09-26T01:23:02.131Z,0.00
2022-09-26T01:24:02.129Z,0.00
2022-09-26T01:25:02.132Z,0.00
2022-09-26T01:26:02.129Z,0.00
2022-09-26T01:27:02.128Z,0.00
2022-09-26T01:28:02.126Z,0.00
2022-09-26T01:29:02.140Z,0.00
2022-09-26T01:30:02.146Z,0.00
2022-09-26T01:31:02.230Z,0.00
2022-09-26T01:32:02.128Z,0.00
2022-09-26T01:33:02.126Z,0.00
2022-09-26T01:34:02.132Z,0.00
2022-09-26T01:35:02.127Z,0.00
2022-09-26T01:36:02.133Z,0.00
2022-09-26T01:37:02.128Z,0.00
2022-09-26T01:38:02.129Z,0.00
2022-09-26T01:39:02.125Z,0.00
2022-09-26T01:40:02.130Z,0.00
2022-09-26T01:41:02.131Z,0.00
2022-09-26T01:42:02.125Z,0.00
2022-09-26T01:43:02.128Z,0.00
2022-09-26T01:44:02.126Z,0.00
2022-09-26T01:45:02.135Z,0.00
2022-09-26T01:46:02.284Z,0.00
2022-09-26T01:47:02.147Z,0.00
2022-09-26T01:48:02.129Z,0.00
2022-09-26T01:49:02.129Z,0.00
2022-09-26T01:50:02.131Z,0.00
2022-09-26T01:51:02.129Z,0.00
2022-09-26T01:52:02.127Z,0.00
2022-09-26T01:53:02.125Z,0.00
2022-09-26T01:54:02.125Z,0.00
2022-09-26T01:55:02.120Z,0.00
2022-09-26T01:56:02.124Z,0.00
2022-09-26T01:57:02.125Z,0.00
2022-09-26T01:58:02.128Z,0.00
2022-09-26T01:59:02.123Z,0.00
2022-09-26T02:00:02.133Z,0.00
2022-09-26T02:01:02.213Z,0.00
2022-09-26T02:02:02.185Z,0.00
2022-09-26T02:03:02.144Z,0.00
2022-09-26T02:04:02.124Z,0.00
2022-09-26T02:05:02.124Z,0.00
2022-09-26T02:06:02.126Z,0.00
2022-09-26T02:07:02.139Z,0.00
2022-09-26T02:08:02.122Z,0.00
2022-09-26T02:09:02.124Z,0.00
2022-09-26T02:10:02.128Z,0.00
2022-09-26T02:11:02.125Z,0.00
2022-09-26T02:12:02.121Z,0.00
2022-09-26T02:13:02.125Z,0.00
2022-09-26T02:14:02.126Z,0.00
2022-09-26T02:15:02.124Z,0.00
2022-09-26T02:16:02.287Z,0.00
2022-09-26T02:17:02.217Z,0.00
2022-09-26T02:18:02.125Z,0.00
2022-09-26T02:19:02.138Z,0.00
2022-09-26T02:20:02.121Z,0.00
2022-09-26T02:21:02.124Z,0.00
2022-09-26T02:22:02.134Z,0.00
2022-09-26T02:23:02.122Z,0.00
2022-09-26T02:24:02.122Z,0.00
2022-09-26T02:25:02.120Z,0.00
2022-09-26T02:26:02.120Z,0.00
2022-09-26T02:27:02.170Z,0.00
2022-09-26T02:28:02.118Z,0.00
2022-09-26T02:29:02.119Z,0.00
2022-09-26T02:30:02.128Z,0.00
2022-09-26T02:31:02.117Z,0.00
2022-09-26T02:32:02.171Z,0.00
2022-09-26T02:33:02.117Z,0.00
2022-09-26T02:34:02.121Z,0.00
2022-09-26T02:35:02.135Z,0.00
2022-09-26T02:36:02.117Z,0.00
2022-09-26T02:37:02.115Z,0.00
2022-09-26T02:38:02.126Z,0.00
2022-09-26T02:39:02.118Z,0.00
2022-09-26T02:40:02.120Z,0.00
2022-09-26T02:41:02.118Z,0.00
2022-09-26T02:42:02.118Z,0.00
2022-09-26T02:43:02.128Z,0.00
2022-09-26T02:44:02.119Z,0.00
2022-09-26T02:45:02.121Z,0.00
2022-09-26T02:46:02.278Z,0.00
2022-09-26T02:47:02.117Z,0.00
2022-09-26T02:48:02.115Z,0.00
2022-09-26T02:49:02.121Z,0.00
2022-09-26T02:50:02.115Z,0.00
2022-09-26T02:51:02.135Z,0.00
2022-09-26T02:52:02.116Z,0.00
2022-09-26T02:53:02.117Z,0.00
2022-09-26T02:54:02.115Z,0.00
2022-09-26T02:55:02.122Z,0.00
2022-09-26T02:56:02.115Z,0.00
2022-09-26T02:57:02.117Z,0.00
2022-09-26T02:58:02.115Z,0.00
2022-09-26T02:59:02.114Z,0.00
2022-09-26T03:00:02.115Z,0.00
2022-09-26T03:01:02.213Z,0.00
2022-09-26T03:02:02.120Z,0.00
2022-09-26T03:03:02.109Z,0.00
2022-09-26T03:04:02.118Z,0.00
2022-09-26T03:05:02.188Z,0.00
2022-09-26T03:06:02.114Z,0.00
2022-09-26T03:07:02.146Z,0.00
2022-09-26T03:08:02.110Z,0.00
2022-09-26T03:09:02.122Z,0.00
2022-09-26T03:10:02.119Z,0.00
2022-09-26T03:11:02.109Z,0.00
2022-09-26T03:12:02.119Z,0.00
2022-09-26T03:13:02.108Z,0.00
2022-09-26T03:14:02.118Z,0.00
2022-09-26T03:15:02.111Z,0.00
2022-09-26T03:16:02.164Z,0.00
2022-09-26T03:17:02.105Z,0.00
2022-09-26T03:18:02.108Z,0.00
2022-09-26T03:19:02.108Z,0.00
2022-09-26T03:20:02.105Z,0.00
2022-09-26T03:21:02.114Z,0.00
2022-09-26T03:22:02.119Z,0.00
2022-09-26T03:23:02.129Z,0.00
2022-09-26T03:24:02.115Z,0.00
2022-09-26T03:25:02.108Z,0.00
2022-09-26T03:26:02.122Z,0.00
2022-09-26T03:27:02.159Z,0.00
2022-09-26T03:28:02.115Z,0.00
2022-09-26T03:29:02.110Z,0.00
2022-09-26T03:30:02.111Z,0.00
2022-09-26T03:31:02.104Z,0.00
2022-09-26T03:32:02.262Z,0.00
2022-09-26T03:33:02.105Z,0.00
2022-09-26T03:34:02.139Z,0.00
2022-09-26T03:35:02.113Z,0.00
2022-09-26T03:36:02.106Z,0.00
2022-09-26T03:37:02.109Z,0.00
2022-09-26T03:38:02.108Z,0.00
2022-09-26T03:39:02.129Z,0.00
2022-09-26T03:40:02.113Z,0.00
2022-09-26T03:41:02.339Z,0.00
2022-09-26T03:42:02.104Z,0.00
2022-09-26T03:43:02.112Z,0.00
2022-09-26T03:44:02.102Z,0.00
2022-09-26T03:45:02.111Z,0.00
2022-09-26T03:46:02.207Z,0.00
2022-09-26T03:47:02.107Z,0.00
2022-09-26T03:48:02.125Z,0.00
2022-09-26T03:49:02.105Z,0.00
2022-09-26T03:50:02.113Z,0.00
2022-09-26T03:51:02.100Z,0.00
2022-09-26T03:52:02.105Z,0.00
2022-09-26T03:53:02.104Z,0.00
2022-09-26T03:54:02.103Z,0.00
2022-09-26T03:55:02.125Z,0.00
2022-09-26T03:56:02.103Z,0.00
2022-09-26T03:57:02.109Z,0.00
2022-09-26T03:58:02.106Z,0.00
2022-09-26T03:59:02.101Z,0.00
2022-09-26T04:00:02.141Z,0.00
2022-09-26T04:01:02.201Z,0.00
2022-09-26T04:02:02.229Z,0.00
2022-09-26T04:03:02.115Z,0.00
2022-09-26T04:04:02.115Z,0.00
2022-09-26T04:05:02.102Z,0.00
2022-09-26T04:06:02.098Z,0.00
2022-09-26T04:07:02.113Z,0.00
2022-09-26T04:08:02.102Z,0.00
2022-09-26T04:09:02.107Z,0.00
2022-09-26T04:10:02.112Z,0.00
2022-09-26T04:11:02.117Z,0.00
2022-09-26T04:12:02.110Z,0.00
2022-09-26T04:13:02.106Z,0.00
2022-09-26T04:14:02.106Z,0.00
2022-09-26T04:15:02.114Z,0.00
2022-09-26T04:16:02.203Z,0.00
2022-09-26T04:17:02.118Z,0.00
2022-09-26T04:18:02.119Z,0.00
2022-09-26T04:19:02.109Z,0.00
2022-09-26T04:20:02.114Z,0.00
2022-09-26T04:21:03.997Z,0.00
2022-09-26T04:22:02.092Z,0.00
2022-09-26T04:23:02.106Z,0.00
2022-09-26T04:24:02.116Z,0.00
2022-09-26T04:25:02.101Z,0.00
2022-09-26T04:26:02.092Z,0.00
2022-09-26T04:27:02.142Z,0.00
2022-09-26T04:28:02.093Z,0.00
2022-09-26T04:29:02.092Z,0.00
2022-09-26T04:30:02.095Z,0.00
2022-09-26T04:31:02.091Z,0.00
2022-09-26T04:32:02.173Z,0.00
2022-09-26T04:33:02.091Z,0.00
2022-09-26T04:34:02.087Z,0.00
2022-09-26T04:35:02.096Z,0.00
2022-09-26T04:36:02.094Z,0.00
2022-09-26T04:37:02.088Z,0.00
2022-09-26T04:38:02.092Z,0.00
2022-09-26T04:39:02.092Z,0.00
2022-09-26T04:40:02.087Z,0.00
2022-09-26T04:41:02.231Z,0.00
2022-09-26T04:42:02.093Z,0.00
2022-09-26T04:43:02.210Z,0.00
2022-09-26T04:44:02.086Z,0.00
2022-09-26T04:45:02.087Z,0.00
2022-09-26T04:46:02.134Z,0.00
2022-09-26T04:47:02.088Z,0.00
2022-09-26T04:48:02.086Z,0.00
2022-09-26T04:49:02.089Z,0.00
2022-09-26T04:50:02.086Z,0.00
2022-09-26T04:51:02.085Z,0.00
2022-09-26T04:52:02.083Z,0.00
2022-09-26T04:53:02.085Z,5.63
2022-09-26T04:54:02.088Z,5.63
2022-09-26T04:55:02.084Z,5.63
2022-09-26T04:56:02.085Z,5.63
2022-09-26T04:57:02.084Z,5.63
2022-09-26T04:58:02.085Z,5.63
2022-09-26T04:59:02.197Z,5.63
2022-09-26T05:00:02.085Z,5.63
2022-09-26T05:01:02.169Z,11.25
2022-09-26T05:02:02.153Z,11.25
2022-09-26T05:03:02.084Z,11.25
2022-09-26T05:04:02.080Z,11.25
2022-09-26T05:05:02.082Z,11.25
2022-09-26T05:06:02.080Z,11.25
2022-09-26T05:07:02.083Z,11.25
2022-09-26T05:08:02.086Z,16.88
2022-09-26T05:09:02.083Z,16.88
2022-09-26T05:10:02.079Z,16.88
2022-09-26T05:11:02.080Z,16.88
2022-09-26T05:12:02.084Z,22.50
2022-09-26T05:13:02.096Z,22.50
2022-09-26T05:14:02.080Z,22.50
2022-09-26T05:15:02.101Z,28.13
2022-09-26T05:16:02.123Z,28.13
2022-09-26T05:17:02.076Z,28.13
2022-09-26T05:18:02.072Z,33.75
2022-09-26T05:19:02.075Z,33.75
2022-09-26T05:20:02.076Z,39.38
2022-09-26T05:21:02.076Z,45.00
2022-09-26T05:22:02.076Z,45.00
2022-09-26T05:23:02.077Z,50.63
2022-09-26T05:24:02.073Z,50.63
2022-09-26T05:25:02.076Z,56.25
2022-09-26T05:26:02.078Z,61.88
2022-09-26T05:27:02.076Z,61.88
2022-09-26T05:28:02.135Z,67.50
2022-09-26T05:29:07.712Z,67.50
2022-09-26T05:30:02.079Z,67.50
2022-09-26T05:31:02.095Z,61.88
2022-09-26T05:32:02.149Z,61.88
2022-09-26T05:33:02.074Z,61.88
2022-09-26T05:34:02.071Z,61.88
2022-09-26T05:35:02.068Z,61.88
2022-09-26T05:36:02.084Z,61.88
2022-09-26T05:37:02.069Z,61.88
2022-09-26T05:38:02.075Z,61.88
2022-09-26T05:39:02.069Z,61.88
2022-09-26T05:40:02.069Z,61.88
2022-09-26T05:41:02.169Z,61.88
2022-09-26T05:42:02.068Z,61.88
2022-09-26T05:43:02.069Z,67.50
2022-09-26T05:44:02.067Z,67.50
2022-09-26T05:45:02.073Z,67.50
2022-09-26T05:46:02.075Z,67.50
2022-09-26T05:47:02.283Z,67.50
2022-09-26T05:48:02.068Z,67.50
2022-09-26T05:49:02.065Z,73.13
2022-09-26T05:50:02.121Z,73.13
2022-09-26T05:51:02.066Z,73.13
2022-09-26T05:52:02.065Z,78.75
2022-09-26T05:53:02.066Z,78.75
2022-09-26T05:54:02.066Z,90.00
2022-09-26T05:55:02.066Z,90.00
2022-09-26T05:56:02.066Z,95.63
2022-09-26T05:57:02.084Z,84.38
2022-09-26T05:58:02.062Z,90.00
2022-09-26T05:59:02.063Z,90.00
2022-09-26T06:00:02.062Z,95.63
2022-09-26T06:01:02.155Z,95.63
2022-09-26T06:02:02.164Z,101.25
2022-09-26T06:03:02.086Z,101.25
2022-09-26T06:04:02.060Z,106.88
2022-09-26T06:05:02.059Z,106.88
2022-09-26T06:06:02.065Z,106.88
2022-09-26T06:07:02.060Z,106.88
2022-09-26T06:08:02.057Z,112.50
2022-09-26T06:09:02.062Z,112.50
2022-09-26T06:10:02.073Z,112.50
2022-09-26T06:11:02.059Z,118.13
2022-09-26T06:12:02.054Z,118.13
2022-09-26T06:13:02.058Z,123.75
2022-09-26T06:14:02.058Z,123.75
2022-09-26T06:15:02.059Z,129.38
2022-09-26T06:16:02.111Z,135.00
2022-09-26T06:17:02.058Z,135.00
2022-09-26T06:18:02.062Z,135.00
2022-09-26T06:19:02.160Z,135.00
2022-09-26T06:20:02.064Z,135.00
2022-09-26T06:21:02.053Z,151.88
2022-09-26T06:22:02.055Z,157.50
2022-09-26T06:23:02.060Z,157.50
2022-09-26T06:24:02.061Z,168.75
2022-09-26T06:25:02.052Z,168.75
2022-09-26T06:26:02.055Z,168.75
2022-09-26T06:27:02.060Z,174.38
2022-09-26T06:28:02.049Z,174.38
2022-09-26T06:29:02.050Z,174.38
2022-09-26T06:30:02.051Z,174.38
2022-09-26T06:31:02.051Z,180.00
2022-09-26T06:32:02.113Z,185.63
2022-09-26T06:33:02.060Z,185.63
2022-09-26T06:34:02.054Z,185.63
2022-09-26T06:35:02.068Z,196.88
2022-09-26T06:36:02.053Z,191.25
2022-09-26T06:37:02.052Z,196.88
2022-09-26T06:38:02.051Z,196.88
2022-09-26T06:39:02.051Z,196.88
2022-09-26T06:40:02.044Z,196.88
2022-09-26T06:41:02.106Z,202.50
2022-09-26T06:42:02.047Z,202.50
2022-09-26T06:43:02.048Z,208.13
2022-09-26T06:44:02.051Z,208.13
2022-09-26T06:45:02.049Z,213.75
2022-09-26T06:46:02.070Z,213.75
2022-09-26T06:47:02.123Z,213.75
2022-09-26T06:48:02.052Z,219.38
2022-09-26T06:49:02.045Z,219.38
2022-09-26T06:50:02.045Z,225.00
2022-09-26T06:51:02.147Z,230.63
2022-09-26T06:52:02.049Z,230.63
2022-09-26T06:53:11.980Z,236.25
2022-09-26T06:54:02.041Z,241.88
2022-09-26T06:55:02.048Z,241.88
2022-09-26T06:56:02.045Z,241.88
2022-09-26T06:57:02.056Z,247.50
2022-09-26T06:58:02.055Z,258.75
2022-09-26T06:59:02.052Z,275.63
2022-09-26T07:00:02.049Z,286.88
2022-09-26T07:01:02.241Z,292.50
2022-09-26T07:02:02.219Z,309.38
2022-09-26T07:03:02.042Z,320.63
2022-09-26T07:04:02.068Z,337.50
2022-09-26T07:05:02.045Z,348.75
2022-09-26T07:06:02.037Z,371.25
2022-09-26T07:07:02.065Z,382.50
2022-09-26T07:08:02.039Z,393.75
2022-09-26T07:09:12.752Z,393.75
2022-09-26T07:10:02.035Z,405.00
2022-09-26T07:11:27.902Z,399.38
2022-09-26T07:12:16.416Z,399.38
2022-09-26T07:13:02.041Z,399.38
2022-09-26T07:14:02.336Z,405.00
2022-09-26T07:15:02.041Z,399.38
2022-09-26T07:16:02.051Z,399.38
2022-09-26T07:17:02.044Z,388.13
2022-09-26T07:18:02.040Z,382.50
2022-09-26T07:19:02.037Z,371.25
2022-09-26T07:20:02.040Z,365.63
2022-09-26T07:21:02.040Z,360.00
2022-09-26T07:22:02.040Z,343.13
2022-09-26T07:23:02.173Z,331.88
2022-09-26T07:24:02.040Z,326.25
2022-09-26T07:25:02.041Z,320.63
2022-09-26T07:26:02.038Z,315.00
2022-09-26T07:27:02.037Z,309.38
2022-09-26T07:28:02.043Z,320.63
2022-09-26T07:29:02.037Z,326.25
2022-09-26T07:30:02.035Z,331.88
2022-09-26T07:31:02.151Z,331.88
2022-09-26T07:32:02.142Z,331.88
2022-09-26T07:33:02.048Z,337.50
2022-09-26T07:34:02.042Z,337.50
2022-09-26T07:35:02.038Z,348.75
2022-09-26T07:36:05.449Z,416.25
2022-09-26T07:37:02.041Z,556.88
2022-09-26T07:38:02.044Z,658.13
2022-09-26T07:39:02.057Z,793.13
2022-09-26T07:40:02.194Z,905.63
2022-09-26T07:41:02.130Z,956.25
2022-09-26T07:42:02.040Z,1023.75
2022-09-26T07:43:19.105Z,776.25
2022-09-26T07:44:53.344Z,405.00
2022-09-26T07:46:02.050Z,320.63
2022-09-26T07:47:02.116Z,320.63
2022-09-26T07:48:02.042Z,331.88
2022-09-26T07:49:02.041Z,320.63
2022-09-26T07:50:02.043Z,253.13
2022-09-26T07:51:06.944Z,213.75
2022-09-26T07:52:02.042Z,556.88
2022-09-26T07:53:02.043Z,399.38
2022-09-26T07:54:02.045Z,337.50
2022-09-26T07:55:02.061Z,433.13
2022-09-26T07:56:02.050Z,455.63
2022-09-26T07:57:02.045Z,523.13
2022-09-26T07:58:02.048Z,506.25
2022-09-26T07:59:02.041Z,534.38
2022-09-26T08:00:02.051Z,658.13
2022-09-26T08:01:02.049Z,506.25
2022-09-26T08:02:02.285Z,466.88
2022-09-26T08:03:02.112Z,343.13
2022-09-26T08:04:02.050Z,320.63
2022-09-26T08:05:02.049Z,320.63
2022-09-26T08:06:02.050Z,472.50
2022-09-26T08:07:02.057Z,371.25
2022-09-26T08:08:02.053Z,534.38
2022-09-26T08:09:02.059Z,309.38
2022-09-26T08:10:02.056Z,275.63
2022-09-26T08:11:04.201Z,343.13
2022-09-26T08:12:02.057Z,703.13
2022-09-26T08:13:02.058Z,540.00
2022-09-26T08:14:02.052Z,534.38
2022-09-26T08:15:02.055Z,815.63
2022-09-26T08:16:02.137Z,523.13
2022-09-26T08:17:02.069Z,450.00
2022-09-26T08:18:02.060Z,382.50
2022-09-26T08:19:02.059Z,691.88
2022-09-26T08:20:02.068Z,815.63
2022-09-26T08:21:02.059Z,810.00
2022-09-26T08:22:02.059Z,540.00
2022-09-26T08:23:02.062Z,393.75
2022-09-26T08:24:02.065Z,511.88
2022-09-26T08:25:02.066Z,922.50
2022-09-26T08:26:02.068Z,956.25
2022-09-26T08:27:02.094Z,770.63
2022-09-26T08:28:02.070Z,770.63
2022-09-26T08:29:02.093Z,826.88
2022-09-26T08:30:02.099Z,860.63
2022-09-26T08:31:02.158Z,905.63
2022-09-26T08:32:02.074Z,967.50
2022-09-26T08:33:02.071Z,697.50
2022-09-26T08:34:02.075Z,776.25
2022-09-26T08:35:02.092Z,691.88
2022-09-26T08:36:02.076Z,607.50
2022-09-26T08:37:02.082Z,579.38
2022-09-26T08:38:02.078Z,624.38
2022-09-26T08:39:02.079Z,731.25
2022-09-26T08:40:02.082Z,770.63
2022-09-26T08:41:02.178Z,821.25
2022-09-26T08:42:02.087Z,759.38
2022-09-26T08:43:02.215Z,793.13
2022-09-26T08:44:02.086Z,1130.63
2022-09-26T08:45:02.088Z,2188.13
2022-09-26T08:46:02.155Z,2559.38
2022-09-26T08:47:02.245Z,2019.38
2022-09-26T08:48:02.091Z,2818.13
2022-09-26T08:49:02.095Z,2761.88
2022-09-26T08:50:02.154Z,2880.00
2022-09-26T08:51:02.103Z,2857.50
2022-09-26T08:52:02.102Z,2919.38
2022-09-26T08:53:02.104Z,646.88
2022-09-26T08:54:02.111Z,3138.75
2022-09-26T08:55:02.120Z,3026.25
2022-09-26T08:56:02.118Z,3133.13
2022-09-26T08:57:02.120Z,2925.00
2022-09-26T08:58:02.127Z,2176.88
2022-09-26T08:59:02.145Z,1029.38
2022-09-26T09:00:02.131Z,2722.50
2022-09-26T09:01:02.149Z,2823.75
2022-09-26T09:02:02.208Z,331.88
2022-09-26T09:03:02.329Z,410.63
2022-09-26T09:04:02.152Z,545.63
2022-09-26T09:05:02.155Z,455.63
2022-09-26T09:06:02.159Z,292.50
2022-09-26T09:07:02.160Z,506.25
2022-09-26T09:08:02.167Z,3532.50
2022-09-26T09:09:02.174Z,3729.38
2022-09-26T09:10:02.174Z,1237.50
2022-09-26T09:11:02.179Z,348.75
2022-09-26T09:12:02.183Z,264.38
2022-09-26T09:13:02.197Z,219.38
2022-09-26T09:14:02.198Z,309.38
2022-09-26T09:15:23.964Z,3043.13
2022-09-26T09:16:02.279Z,1153.13
2022-09-26T09:17:02.209Z,3943.13
2022-09-26T09:18:02.218Z,3943.13
2022-09-26T09:19:02.222Z,3796.88
2022-09-26T09:20:02.231Z,3976.88
2022-09-26T09:21:02.227Z,3965.63
2022-09-26T09:22:02.249Z,4010.63
2022-09-26T09:23:02.247Z,3937.50
2022-09-26T09:24:02.277Z,489.38
2022-09-26T09:25:02.255Z,618.75
2022-09-26T09:28:08.072Z,253.13
2022-09-26T09:29:02.279Z,230.63
2022-09-26T09:30:03.241Z,247.50
2022-09-26T09:31:02.445Z,331.88
2022-09-26T09:32:02.301Z,1873.13
2022-09-26T09:33:02.301Z,343.13
2022-09-26T09:34:02.314Z,326.25
2022-09-26T09:35:02.329Z,630.00
2022-09-26T09:36:02.343Z,489.38
2022-09-26T09:37:02.330Z,444.38
2022-09-26T09:38:02.335Z,607.50
2022-09-26T09:39:02.341Z,4325.63
2022-09-26T09:40:02.345Z,4500.00
2022-09-26T09:41:02.498Z,1046.25
2022-09-26T09:42:02.355Z,4612.50
2022-09-26T09:43:02.355Z,4410.00
2022-09-26T09:44:02.370Z,427.50
2022-09-26T09:45:02.377Z,354.38
2022-09-26T09:46:02.475Z,427.50
2022-09-26T09:47:02.528Z,613.13
2022-09-26T09:48:02.391Z,1653.75
2022-09-26T09:49:02.400Z,4387.50
2022-09-26T09:50:02.406Z,736.88
2022-09-26T09:51:02.412Z,736.88
2022-09-26T09:52:02.413Z,652.50
2022-09-26T09:53:02.420Z,3971.25
2022-09-26T09:54:02.432Z,551.25
2022-09-26T09:55:02.432Z,585.00
2022-09-26T09:56:02.444Z,551.25
2022-09-26T09:57:02.449Z,4398.75
2022-09-26T09:58:02.453Z,337.50
2022-09-26T09:59:02.461Z,303.75
2022-09-26T10:00:02.595Z,371.25
2022-09-26T10:01:02.467Z,354.38
2022-09-26T10:02:02.477Z,399.38
2022-09-26T10:03:02.624Z,489.38
2022-09-26T10:04:02.490Z,540.00
2022-09-26T10:05:02.501Z,444.38
2022-09-26T10:06:02.496Z,382.50
2022-09-26T10:07:02.503Z,511.88
2022-09-26T10:08:02.508Z,641.25
2022-09-26T10:09:35.975Z,388.13
2022-09-26T10:10:02.518Z,309.38
2022-09-26T10:11:02.520Z,371.25
2022-09-26T10:12:02.529Z,1698.75
2022-09-26T10:13:02.531Z,646.88
2022-09-26T10:14:02.543Z,354.38
2022-09-26T10:15:02.537Z,365.63
2022-09-26T10:16:02.603Z,331.88
2022-09-26T10:17:02.544Z,3993.75
2022-09-26T10:18:23.438Z,4123.13
2022-09-26T10:19:03.822Z,4415.63
2022-09-26T10:20:02.559Z,3971.25
2022-09-26T10:21:02.560Z,3886.88
2022-09-26T10:22:02.573Z,511.88
2022-09-26T10:23:02.568Z,511.88
2022-09-26T10:24:02.572Z,4415.63
2022-09-26T10:25:02.576Z,4387.50
2022-09-26T10:26:02.583Z,4196.25
2022-09-26T10:27:02.582Z,4618.13
2022-09-26T10:28:02.591Z,4910.63
2022-09-26T10:29:02.591Z,765.00
2022-09-26T10:30:02.603Z,1648.13
2022-09-26T10:31:02.670Z,4477.50
2022-09-26T10:32:02.610Z,4336.88
2022-09-26T10:33:02.618Z,4241.25
2022-09-26T10:34:02.616Z,4460.63
2022-09-26T10:35:02.645Z,4483.13
2022-09-26T10:36:02.641Z,4426.88
2022-09-26T10:37:02.628Z,4325.63
2022-09-26T10:38:02.635Z,4246.88
2022-09-26T10:39:02.640Z,4269.38
2022-09-26T10:40:02.649Z,4348.13
2022-09-26T10:41:02.687Z,1788.75
2022-09-26T10:42:02.660Z,3408.75
2022-09-26T10:43:02.663Z,4230.00
2022-09-26T10:44:02.668Z,4134.38
2022-09-26T10:45:02.672Z,1395.00
2022-09-26T10:46:02.783Z,4365.00
2022-09-26T10:47:02.697Z,4336.88
2022-09-26T10:48:02.699Z,4449.38
2022-09-26T10:49:02.701Z,3678.75
2022-09-26T10:50:02.710Z,618.75
2022-09-26T10:51:02.745Z,3751.88
2022-09-26T10:52:02.717Z,4033.13
2022-09-26T10:53:02.730Z,860.63
2022-09-26T10:54:02.733Z,832.50
2022-09-26T10:55:02.739Z,708.75
2022-09-26T10:56:02.747Z,568.13
2022-09-26T10:57:02.750Z,500.63
2022-09-26T10:58:02.763Z,596.25
2022-09-26T10:59:02.765Z,624.38
2022-09-26T11:00:02.771Z,562.50
2022-09-26T11:01:02.783Z,489.38
2022-09-26T11:02:02.858Z,461.25
2022-09-26T11:03:02.789Z,478.13
2022-09-26T11:04:02.909Z,472.50
2022-09-26T11:05:02.803Z,534.38
2022-09-26T11:06:02.814Z,590.63
2022-09-26T11:07:02.836Z,607.50
2022-09-26T11:08:02.823Z,630.00
2022-09-26T11:09:02.819Z,506.25
2022-09-26T11:10:02.832Z,405.00
2022-09-26T11:11:02.857Z,528.75
2022-09-26T11:12:02.838Z,697.50
2022-09-26T11:13:02.846Z,1158.75
2022-09-26T11:14:02.849Z,815.63
2022-09-26T11:15:02.858Z,675.00
2022-09-26T11:16:02.939Z,815.63
2022-09-26T11:17:02.866Z,753.75
2022-09-26T11:18:02.866Z,680.63
2022-09-26T11:19:02.876Z,556.88
2022-09-26T11:20:02.885Z,472.50
2022-09-26T11:21:02.876Z,444.38
2022-09-26T11:22:07.389Z,405.00
2022-09-26T11:23:02.917Z,365.63
2022-09-26T11:24:02.906Z,337.50
2022-09-26T11:26:46.626Z,331.88
2022-09-26T11:28:19.844Z,270.00
2022-09-26T11:28:46.636Z,213.75
2022-09-26T11:30:19.846Z,174.38
2022-09-26T11:32:30.370Z,185.63
2022-09-26T11:34:03.581Z,191.25
2022-09-26T11:34:30.374Z,213.75
2022-09-26T11:35:49.583Z,258.75
2022-09-26T11:36:30.383Z,270.00
2022-09-26T11:37:30.383Z,241.88
2022-09-26T11:38:30.417Z,264.38
2022-09-26T11:39:30.391Z,292.50
2022-09-26T11:40:30.476Z,303.75
2022-09-26T11:41:30.397Z,292.50
2022-09-26T11:42:30.397Z,270.00
2022-09-26T11:43:30.401Z,247.50
2022-09-26T11:44:30.406Z,230.63
2022-09-26T11:45:33.667Z,219.38
2022-09-26T11:46:30.457Z,219.38
2022-09-26T11:47:30.411Z,219.38
2022-09-26T11:48:30.416Z,196.88
2022-09-26T11:49:30.420Z,185.63
2022-09-26T11:50:30.420Z,191.25
2022-09-26T11:51:30.419Z,202.50
2022-09-26T11:52:30.439Z,185.63
2022-09-26T11:53:30.422Z,163.13
2022-09-26T11:54:30.449Z,146.25
2022-09-26T11:55:30.433Z,129.38
2022-09-26T11:56:30.445Z,123.75
2022-09-26T11:57:30.436Z,123.75
2022-09-26T11:58:30.437Z,118.13
2022-09-26T11:59:30.436Z,112.50
2022-09-26T12:00:30.440Z,106.88
2022-09-26T12:01:30.439Z,95.63
2022-09-26T12:02:30.598Z,90.00
2022-09-26T12:03:30.653Z,90.00
2022-09-26T12:04:30.445Z,101.25
2022-09-26T12:05:30.449Z,118.13
2022-09-26T12:06:30.448Z,123.75
2022-09-26T12:07:30.450Z,151.88
2022-09-26T12:08:30.456Z,180.00
2022-09-26T12:09:30.454Z,213.75
2022-09-26T12:10:30.484Z,258.75
2022-09-26T12:11:30.456Z,326.25
2022-09-26T12:12:30.462Z,416.25
2022-09-26T12:13:30.458Z,500.63
2022-09-26T12:14:30.459Z,613.13
2022-09-26T12:15:30.466Z,596.25
2022-09-26T12:16:30.642Z,618.75
2022-09-26T12:17:30.469Z,579.38
2022-09-26T12:18:30.465Z,478.13
2022-09-26T12:19:30.465Z,326.25
2022-09-26T12:20:30.468Z,253.13
2022-09-26T12:21:30.466Z,236.25
2022-09-26T12:22:30.475Z,230.63
2022-09-26T12:23:30.473Z,225.00
2022-09-26T12:24:30.476Z,213.75
2022-09-26T12:25:30.478Z,174.38
2022-09-26T12:26:30.496Z,157.50
2022-09-26T12:27:30.479Z,146.25
2022-09-26T12:28:30.479Z,135.00
2022-09-26T12:29:30.478Z,123.75
2022-09-26T12:30:30.491Z,106.88
2022-09-26T12:31:30.570Z,95.63
2022-09-26T12:32:30.488Z,78.75
2022-09-26T12:33:30.490Z,67.50
2022-09-26T12:34:30.487Z,56.25
2022-09-26T12:35:30.484Z,67.50
2022-09-26T12:36:30.494Z,90.00
2022-09-26T12:37:30.500Z,118.13
2022-09-26T12:38:30.490Z,140.63
2022-09-26T12:39:30.488Z,174.38
2022-09-26T12:40:30.568Z,191.25
2022-09-26T12:41:30.496Z,236.25
2022-09-26T12:42:30.518Z,270.00
2022-09-26T12:43:30.503Z,376.88
2022-09-26T12:44:30.499Z,500.63
2022-09-26T12:45:30.494Z,556.88
2022-09-26T12:46:30.572Z,556.88
2022-09-26T12:47:30.510Z,540.00
2022-09-26T12:48:30.508Z,534.38
2022-09-26T12:49:30.513Z,540.00
2022-09-26T12:50:30.503Z,528.75
2022-09-26T12:51:30.509Z,528.75
2022-09-26T12:52:30.528Z,534.38
2022-09-26T12:53:30.509Z,500.63